Thunder radar more information blitzortung!


avis per Pluja more information rain snow radar


Visita la nostra xarxa de llocs de meteo:

Template documentation
and downloads

And another site



Rain From: 18-10-2018 10:00 Until: 16:59 warning for: Rain Level: Yellow info button

Pagina Historial Weather Underground text

Diari Resum Juny 4, 2016 Unitats:  Mètric    Imperial   Tant
« Previous Dia
SegĂźent Dia »
Diari Setmana Mensual Anual Personalitzada
  Maxima: Minima: Media:
Temperatura: -17.8 °C -8 °C -6.2 °C
Punt de rosada: -17.8 °C -14.9 °C -11.3 °C
Humitat: Humidity % 42 % 55 %
Wind Speed: 0 km/h 0 km/h 9.7 km/h
RĂ fegues de vent: 0 km/h - -
Vent:- - ESE
Pression baro: 0 hPa 34256.2 hPa -
Precipitacions: 0 mm    
Historical Graphs
 
 
Dades de taula per Juny 4, 2016
Temps Temperatura Punt de rosada Pression baro Vent Wind Speed RĂ fegues de vent Humitat Rainfall Rate (Hourly)
-17.8 °C -17.8 °C 0 hPa Calm     Humidity % 0 mm
00:00 -7.9 °C -14.8 °C 34256.2 hPa SW 3.1 km/h   44 % 0 mm
00:05 -8 °C -14.9 °C 34256.2 hPa Calm   2.6 km/h 44 % 0 mm
09:40 -4.6 °C -12.2 °C 34327.3 hPa East 18.2 km/h 31.1 km/h 42 % 0 mm
09:50 -4.8 °C -12.2 °C 34327.3 hPa East 18.2 km/h 20.8 km/h 43 % 0 mm
10:00 -4.8 °C -12 °C 34327.3 hPa ESE 15.6 km/h 15.6 km/h 44 % 0 mm
10:10 -4.8 °C -12 °C 34327.3 hPa ESE 18.2 km/h 25.9 km/h 44 % 0 mm
10:30 -4.7 °C -11.5 °C 34327.3 hPa ESE 12.9 km/h 20.8 km/h 46 % 0 mm
10:40 -4.3 °C -11.4 °C 34327.3 hPa East 20.8 km/h 28.5 km/h 45 % 0 mm
10:50 -4.3 °C -11.4 °C 34293.4 hPa East 25.9 km/h 28.5 km/h 45 % 0 mm
11:10 -4.9 °C -11.6 °C 34293.4 hPa ESE 25.9 km/h 25.9 km/h 47 % 0 mm
11:20 -5.1 °C -11.6 °C 34327.3 hPa ESE 7.7 km/h 20.8 km/h 48 % 0 mm
11:30 -5.1 °C -11.4 °C 34327.3 hPa ESE 18.2 km/h 18.2 km/h 49 % 0 mm
11:40 -5.2 °C -11.6 °C 34327.3 hPa East 12.9 km/h 15.6 km/h 48 % 0 mm
11:50 -5.3 °C -11.6 °C 34361.1 hPa East 15.6 km/h 20.8 km/h 49 % 0 mm
12:00 -5.3 °C -11.6 °C 34361.1 hPa ESE 12.9 km/h 20.8 km/h 49 % 0 mm
12:10 -5.3 °C -11.3 °C 34327.3 hPa ESE 15.6 km/h 20.8 km/h 50 % 0 mm
12:20 -5.3 °C -11.3 °C 34327.3 hPa East 7.7 km/h 23.3 km/h 50 % 0 mm
17:32 -5.4 °C -11.4 °C 34361.1 hPa ENE 26.9 km/h 26.9 km/h 50 % 0 mm
17:42 -5.3 °C -11.4 °C 34361.1 hPa NNE 17.9 km/h 17.9 km/h 50 % 0 mm
17:47 -5.4 °C -11.6 °C 34361.1 hPa East 15.6 km/h 15.6 km/h 49 % 0 mm
17:52 -5.4 °C -11.7 °C 34361.1 hPa ENE 17.9 km/h 17.9 km/h 49 % 0 mm
17:57 -5.4 °C -11.7 °C 34361.1 hPa East 15 km/h 15 km/h 49 % 0 mm
18:02 -5.5 °C -11.6 °C 34361.1 hPa NNE 11.9 km/h 11.9 km/h 50 % 0 mm
18:07 -5.6 °C -11.4 °C 34361.1 hPa NNE 15 km/h 15 km/h 51 % 0 mm
18:12 -5.6 °C -11.3 °C 34361.1 hPa ENE 17.9 km/h 17.9 km/h 52 % 0 mm
18:17 -5.7 °C -11.2 °C 34361.1 hPa ESE 15.3 km/h 15.3 km/h 53 % 0 mm
18:27 -5.8 °C -11 °C 34361.1 hPa East 15 km/h 15 km/h 55 % 0 mm
18:32 -5.7 °C -11.1 °C 34361.1 hPa NNE 11.9 km/h 11.9 km/h 54 % 0 mm
18:37 -5.7 °C -11.1 °C 34361.1 hPa East 16.6 km/h 16.6 km/h 54 % 0 mm
18:42 -5.7 °C -10.9 °C 34361.1 hPa ESE 18.3 km/h 18.3 km/h 55 % 0 mm
18:47 -5.8 °C -10.9 °C 34361.1 hPa ENE 20.9 km/h 20.9 km/h 56 % 0 mm
18:53 -5.7 °C -10.7 °C 34361.1 hPa ENE 20.9 km/h 20.9 km/h 57 % 0 mm
18:57 -5.8 °C -10.7 °C 34361.1 hPa ENE 17.9 km/h 17.9 km/h 57 % 0 mm
19:02 -5.8 °C -10.8 °C 34361.1 hPa ENE 15 km/h 15 km/h 57 % 0 mm
19:07 -5.8 °C -10.8 °C 34361.1 hPa ESE 16.1 km/h 16.1 km/h 57 % 0 mm
19:13 -5.8 °C -10.8 °C 34361.1 hPa ESE 17.9 km/h 17.9 km/h 57 % 0 mm
19:18 -5.8 °C -10.7 °C 34361.1 hPa East 11.9 km/h 11.9 km/h 57 % 0 mm
19:23 -5.8 °C -10.7 °C 34361.1 hPa East 15 km/h 15 km/h 57 % 0 mm
19:28 -5.8 °C -10.7 °C 34361.1 hPa NNE 11.9 km/h 11.9 km/h 57 % 0 mm
19:33 -5.8 °C -10.7 °C 34361.1 hPa NNE 9.8 km/h 9.8 km/h 57 % 0 mm
19:38 -5.8 °C -10.8 °C 34361.1 hPa WNW 11.9 km/h 11.9 km/h 57 % 0 mm
19:43 -5.8 °C -10.8 °C 34361.1 hPa NE 9 km/h 9 km/h 57 % 0 mm
19:48 -5.9 °C -10.8 °C 34361.1 hPa ENE 9 km/h 9 km/h 57 % 0 mm
19:58 -5.9 °C -10.7 °C 34361.1 hPa NE 6.3 km/h 6.3 km/h 58 % 0 mm
20:03 -6 °C -10.8 °C 34395 hPa NE 6.8 km/h 7.6 km/h 58 % 0 mm
20:08 -6 °C -10.8 °C 34395 hPa ENE 6 km/h 6 km/h 58 % 0 mm
20:13 -6 °C -10.8 °C 34395 hPa ENE 6.8 km/h 6.8 km/h 58 % 0 mm
20:18 -6 °C -10.8 °C 34361.1 hPa ENE 6 km/h 6 km/h 58 % 0 mm
20:23 -6 °C -10.8 °C 34361.1 hPa ENE 6.8 km/h 6.8 km/h 58 % 0 mm
20:28 -6 °C -10.6 °C 34361.1 hPa NNE 6 km/h 6 km/h 59 % 0 mm
20:33 -6 °C -10.6 °C 34361.1 hPa ENE 3.1 km/h 3.1 km/h 59 % 0 mm
20:38 -6 °C -10.6 °C 34361.1 hPa NE 3.7 km/h   59 % 0 mm
20:43 -6.1 °C -10.7 °C 34361.1 hPa NNE 6 km/h 6 km/h 59 % 0 mm
20:48 -6.1 °C -10.5 °C 34361.1 hPa NNE 6.3 km/h 6.3 km/h 60 % 0 mm
20:53 -6.1 °C -10.7 °C 34361.1 hPa NNE 11.9 km/h 11.9 km/h 59 % 0 mm
20:58 -6.2 °C -10.9 °C 34361.1 hPa ENE 6 km/h 6 km/h 58 % 0 mm
21:03 -6.2 °C -11.2 °C 34361.1 hPa NE 9 km/h 9 km/h 57 % 0 mm
21:08 -6.2 °C -11.3 °C 34361.1 hPa NNE 9.3 km/h 9.3 km/h 56 % 0 mm
21:13 -6.3 °C -11.3 °C 34361.1 hPa NE 11.9 km/h 11.9 km/h 56 % 0 mm
21:19 -6.3 °C -11.3 °C 34327.3 hPa NE 6.3 km/h 6.3 km/h 56 % 0 mm
21:24 -6.3 °C -11.4 °C 34327.3 hPa NE 3.1 km/h 3.1 km/h 56 % 0 mm
21:29 -6.3 °C -11.4 °C 34327.3 hPa WNW 3.1 km/h 3.1 km/h 56 % 0 mm
21:39 -6.4 °C -11.4 °C 34327.3 hPa Calm     56 % 0 mm
21:44 -6.4 °C -11.5 °C 34327.3 hPa Calm     56 % 0 mm
21:49 -6.4 °C -11.5 °C 34327.3 hPa West 6 km/h 6 km/h 56 % 0 mm
21:54 -6.4 °C -11.3 °C 34327.3 hPa WSW 6 km/h 6 km/h 57 % 0 mm
21:59 -6.5 °C -11.2 °C 34327.3 hPa NW 3.1 km/h   58 % 0 mm
22:04 -6.6 °C -11.2 °C 34361.1 hPa WNW 3.1 km/h   59 % 0 mm
22:09 -6.6 °C -11.2 °C 34361.1 hPa SSW 6 km/h 6 km/h 59 % 0 mm
22:14 -6.7 °C -11.3 °C 34361.1 hPa WNW 6 km/h 6 km/h 59 % 0 mm
22:19 -6.7 °C -11 °C 34361.1 hPa Calm     61 % 0 mm
22:24 -6.7 °C -11 °C 34361.1 hPa NW 3.1 km/h   61 % 0 mm
22:29 -6.8 °C -11.1 °C 34361.1 hPa West 4.2 km/h   61 % 0 mm
22:34 -6.8 °C -11 °C 34395 hPa Calm     62 % 0 mm
22:39 -6.8 °C -11 °C 34395 hPa Calm     62 % 0 mm
22:44 -6.9 °C -10.9 °C 34395 hPa WNW 3.1 km/h   63 % 0 mm
22:49 -6.9 °C -10.8 °C 34361.1 hPa ENE 3.7 km/h   64 % 0 mm
22:54 -7 °C -11 °C 34361.1 hPa ENE 6 km/h 6 km/h 63 % 0 mm
22:59 -7.1 °C -10.9 °C 34361.1 hPa ENE 5.6 km/h   64 % 0 mm
23:04 -7.1 °C -11 °C 34395 hPa Calm     64 % 0 mm
23:09 -7.2 °C -11.1 °C 34395 hPa NE 3.1 km/h   64 % 0 mm
23:14 -7.2 °C -11.1 °C 34395 hPa ENE 3.1 km/h   64 % 0 mm
23:19 -7.3 °C -11 °C 34395 hPa NE 4.2 km/h 4.2 km/h 65 % 0 mm
23:29 -7.3 °C -11.1 °C 34395 hPa ENE 3.1 km/h 3.1 km/h 65 % 0 mm
23:34 -7.4 °C -11.1 °C 34395 hPa WNW 3.1 km/h   65 % 0 mm
23:40 -7.4 °C -11.3 °C 34395 hPa NNE 2.6 km/h 7.7 km/h 64 % 0 mm
23:45 -7.4 °C -11.3 °C 34395 hPa ENE 9 km/h 9 km/h 64 % 0 mm
23:50 -7.4 °C -11.3 °C 34395 hPa East 5.1 km/h 7.7 km/h 64 % 0 mm
23:55 -7.4 °C -11.2 °C 34395 hPa SSW 9 km/h 9 km/h 65 % 0 mm
Meteo Sesrovires
Elogis d' Weather Underground - 1.25 mb

Guio original per  Jim McMurry - jmcmurry@mwt.net Adaptat per a la plantilla per  Wim van der Kuil - Leuven-Template.eu

Trobareu la nostra informacio del temps tambe a:

Weather Underground

AWEKAS